sensor_id;sensor_type;location;lat;lon;timestamp;temperature;humidity
49441;DHT22;35317;51.978;6.296;2024-03-02T00:01:11;9.10;99.90
49441;DHT22;35317;51.978;6.296;2024-03-02T00:06:11;9.20;99.90
49441;DHT22;35317;51.978;6.296;2024-03-02T00:11:12;9.20;99.90
49441;DHT22;35317;51.978;6.296;2024-03-02T00:16:15;9.20;99.90
49441;DHT22;35317;51.978;6.296;2024-03-02T00:21:19;9.30;99.90
49441;DHT22;35317;51.978;6.296;2024-03-02T00:26:22;9.40;99.90
49441;DHT22;35317;51.978;6.296;2024-03-02T00:31:23;9.50;99.90
49441;DHT22;35317;51.978;6.296;2024-03-02T00:36:26;9.50;99.90
49441;DHT22;35317;51.978;6.296;2024-03-02T00:41:32;9.60;99.90
49441;DHT22;35317;51.978;6.296;2024-03-02T00:46:42;9.60;99.90
49441;DHT22;35317;51.978;6.296;2024-03-02T00:51:47;9.60;99.90
49441;DHT22;35317;51.978;6.296;2024-03-02T00:56:49;9.60;99.90
49441;DHT22;35317;51.978;6.296;2024-03-02T01:01:51;9.60;99.90
49441;DHT22;35317;51.978;6.296;2024-03-02T01:06:52;9.60;99.90
49441;DHT22;35317;51.978;6.296;2024-03-02T01:11:53;9.70;99.90
49441;DHT22;35317;51.978;6.296;2024-03-02T01:16:54;9.80;99.90
49441;DHT22;35317;51.978;6.296;2024-03-02T01:21:55;9.80;99.90
49441;DHT22;35317;51.978;6.296;2024-03-02T01:26:55;9.90;99.90
49441;DHT22;35317;51.978;6.296;2024-03-02T01:31:56;10.00;99.90
49441;DHT22;35317;51.978;6.296;2024-03-02T01:36:57;10.00;99.90
49441;DHT22;35317;51.978;6.296;2024-03-02T01:41:58;10.10;99.90
49441;DHT22;35317;51.978;6.296;2024-03-02T01:46:58;10.10;99.90
49441;DHT22;35317;51.978;6.296;2024-03-02T01:51:59;10.10;99.90
49441;DHT22;35317;51.978;6.296;2024-03-02T01:57:00;10.10;99.90
49441;DHT22;35317;51.978;6.296;2024-03-02T02:02:01;10.20;99.90
49441;DHT22;35317;51.978;6.296;2024-03-02T02:07:02;10.20;99.90
49441;DHT22;35317;51.978;6.296;2024-03-02T02:12:03;10.20;99.90
49441;DHT22;35317;51.978;6.296;2024-03-02T02:17:06;10.20;99.90
49441;DHT22;35317;51.978;6.296;2024-03-02T02:22:07;10.10;99.90
49441;DHT22;35317;51.978;6.296;2024-03-02T02:27:08;10.10;99.90
49441;DHT22;35317;51.978;6.296;2024-03-02T02:32:10;10.00;99.90
49441;DHT22;35317;51.978;6.296;2024-03-02T02:37:11;10.00;99.90
49441;DHT22;35317;51.978;6.296;2024-03-02T02:42:11;10.00;99.90
49441;DHT22;35317;51.978;6.296;2024-03-02T02:47:12;10.00;99.90
49441;DHT22;35317;51.978;6.296;2024-03-02T02:52:13;9.90;99.90
49441;DHT22;35317;51.978;6.296;2024-03-02T02:57:14;9.90;99.90
49441;DHT22;35317;51.978;6.296;2024-03-02T03:02:14;9.90;99.90
49441;DHT22;35317;51.978;6.296;2024-03-02T03:07:15;9.90;99.90
49441;DHT22;35317;51.978;6.296;2024-03-02T03:12:16;9.80;99.90
49441;DHT22;35317;51.978;6.296;2024-03-02T03:17:17;9.80;99.90
49441;DHT22;35317;51.978;6.296;2024-03-02T03:22:17;9.80;99.90
49441;DHT22;35317;51.978;6.296;2024-03-02T03:27:18;9.70;99.90
49441;DHT22;35317;51.978;6.296;2024-03-02T03:32:20;9.70;99.90
49441;DHT22;35317;51.978;6.296;2024-03-02T03:37:20;9.70;99.90
49441;DHT22;35317;51.978;6.296;2024-03-02T03:42:21;9.60;99.90
49441;DHT22;35317;51.978;6.296;2024-03-02T03:47:22;9.60;99.90
49441;DHT22;35317;51.978;6.296;2024-03-02T03:52:23;9.60;99.90
49441;DHT22;35317;51.978;6.296;2024-03-02T03:57:24;9.50;99.90
49441;DHT22;35317;51.978;6.296;2024-03-02T04:02:25;9.50;99.90
49441;DHT22;35317;51.978;6.296;2024-03-02T04:07:26;9.50;99.90
49441;DHT22;35317;51.978;6.296;2024-03-02T04:12:27;9.50;99.90
49441;DHT22;35317;51.978;6.296;2024-03-02T04:17:27;9.50;99.90
49441;DHT22;35317;51.978;6.296;2024-03-02T04:22:28;9.50;99.90
49441;DHT22;35317;51.978;6.296;2024-03-02T04:27:29;9.40;99.90
49441;DHT22;35317;51.978;6.296;2024-03-02T04:32:30;9.40;99.90
49441;DHT22;35317;51.978;6.296;2024-03-02T04:37:33;9.30;99.90
49441;DHT22;35317;51.978;6.296;2024-03-02T04:42:35;9.10;99.90
49441;DHT22;35317;51.978;6.296;2024-03-02T04:47:36;9.00;99.90
49441;DHT22;35317;51.978;6.296;2024-03-02T04:52:37;9.00;99.90
49441;DHT22;35317;51.978;6.296;2024-03-02T04:57:37;8.90;99.90
49441;DHT22;35317;51.978;6.296;2024-03-02T05:02:38;8.80;99.90
49441;DHT22;35317;51.978;6.296;2024-03-02T05:07:39;8.70;99.90
49441;DHT22;35317;51.978;6.296;2024-03-02T05:12:42;8.70;99.90
49441;DHT22;35317;51.978;6.296;2024-03-02T05:17:43;8.60;99.90
49441;DHT22;35317;51.978;6.296;2024-03-02T05:22:44;8.60;99.90
49441;DHT22;35317;51.978;6.296;2024-03-02T05:27:45;8.60;99.90
49441;DHT22;35317;51.978;6.296;2024-03-02T05:32:46;8.70;99.90
49441;DHT22;35317;51.978;6.296;2024-03-02T05:37:47;8.70;99.90
49441;DHT22;35317;51.978;6.296;2024-03-02T05:42:48;8.60;99.90
49441;DHT22;35317;51.978;6.296;2024-03-02T05:47:49;8.60;99.90
49441;DHT22;35317;51.978;6.296;2024-03-02T05:52:49;8.50;99.90
49441;DHT22;35317;51.978;6.296;2024-03-02T05:57:50;8.40;99.90
49441;DHT22;35317;51.978;6.296;2024-03-02T06:03:22;8.40;99.90
49441;DHT22;35317;51.978;6.296;2024-03-02T06:08:23;8.40;99.90
49441;DHT22;35317;51.978;6.296;2024-03-02T06:13:23;8.40;99.90
49441;DHT22;35317;51.978;6.296;2024-03-02T06:18:26;8.40;99.90
49441;DHT22;35317;51.978;6.296;2024-03-02T06:23:27;8.40;99.90
49441;DHT22;35317;51.978;6.296;2024-03-02T06:28:28;8.40;99.90
49441;DHT22;35317;51.978;6.296;2024-03-02T06:33:29;8.40;99.90
49441;DHT22;35317;51.978;6.296;2024-03-02T06:38:30;8.30;99.90
49441;DHT22;35317;51.978;6.296;2024-03-02T06:43:32;8.20;99.90
49441;DHT22;35317;51.978;6.296;2024-03-02T06:48:33;8.00;99.90
49441;DHT22;35317;51.978;6.296;2024-03-02T06:53:34;7.90;99.90
49441;DHT22;35317;51.978;6.296;2024-03-02T06:58:35;7.70;99.90
49441;DHT22;35317;51.978;6.296;2024-03-02T07:03:35;7.60;99.90
49441;DHT22;35317;51.978;6.296;2024-03-02T07:08:36;7.40;99.90
49441;DHT22;35317;51.978;6.296;2024-03-02T07:13:37;7.30;99.90
49441;DHT22;35317;51.978;6.296;2024-03-02T07:18:38;7.20;99.90
49441;DHT22;35317;51.978;6.296;2024-03-02T07:23:41;7.10;99.90
49441;DHT22;35317;51.978;6.296;2024-03-02T07:28:42;7.10;99.90
49441;DHT22;35317;51.978;6.296;2024-03-02T07:33:44;7.10;99.90
49441;DHT22;35317;51.978;6.296;2024-03-02T07:38:46;7.10;99.90
49441;DHT22;35317;51.978;6.296;2024-03-02T07:43:50;7.30;99.90
49441;DHT22;35317;51.978;6.296;2024-03-02T07:48:51;7.60;99.90
49441;DHT22;35317;51.978;6.296;2024-03-02T07:53:53;7.90;99.90
49441;DHT22;35317;51.978;6.296;2024-03-02T07:58:54;8.20;99.90
49441;DHT22;35317;51.978;6.296;2024-03-02T08:04:01;8.50;99.90
49441;DHT22;35317;51.978;6.296;2024-03-02T08:09:03;8.70;99.90
49441;DHT22;35317;51.978;6.296;2024-03-02T08:14:09;8.70;99.90
49441;DHT22;35317;51.978;6.296;2024-03-02T08:19:11;8.60;99.90
49441;DHT22;35317;51.978;6.296;2024-03-02T08:24:12;8.60;99.90
49441;DHT22;35317;51.978;6.296;2024-03-02T08:29:13;8.60;99.90
49441;DHT22;35317;51.978;6.296;2024-03-02T08:34:13;8.60;99.90
49441;DHT22;35317;51.978;6.296;2024-03-02T08:39:14;8.60;99.90
49441;DHT22;35317;51.978;6.296;2024-03-02T08:44:16;8.70;99.90
49441;DHT22;35317;51.978;6.296;2024-03-02T08:49:17;8.70;99.90
49441;DHT22;35317;51.978;6.296;2024-03-02T08:54:17;8.80;99.90
49441;DHT22;35317;51.978;6.296;2024-03-02T08:59:18;8.90;99.90
49441;DHT22;35317;51.978;6.296;2024-03-02T09:04:19;9.00;99.90
49441;DHT22;35317;51.978;6.296;2024-03-02T09:09:20;9.10;99.90
49441;DHT22;35317;51.978;6.296;2024-03-02T09:14:21;9.20;99.90
49441;DHT22;35317;51.978;6.296;2024-03-02T09:19:22;9.30;99.90
49441;DHT22;35317;51.978;6.296;2024-03-02T09:24:23;9.30;99.90
49441;DHT22;35317;51.978;6.296;2024-03-02T09:29:24;9.50;99.90
49441;DHT22;35317;51.978;6.296;2024-03-02T09:34:24;9.60;99.90
49441;DHT22;35317;51.978;6.296;2024-03-02T09:39:25;9.70;99.90
49441;DHT22;35317;51.978;6.296;2024-03-02T09:44:26;9.80;99.90
49441;DHT22;35317;51.978;6.296;2024-03-02T09:49:27;9.90;99.90
49441;DHT22;35317;51.978;6.296;2024-03-02T09:54:28;10.10;99.90
49441;DHT22;35317;51.978;6.296;2024-03-02T09:59:29;10.20;99.90
49441;DHT22;35317;51.978;6.296;2024-03-02T10:04:30;10.40;99.90
49441;DHT22;35317;51.978;6.296;2024-03-02T10:09:32;10.40;99.90
49441;DHT22;35317;51.978;6.296;2024-03-02T10:14:32;10.50;99.90
49441;DHT22;35317;51.978;6.296;2024-03-02T10:19:34;10.70;99.90
49441;DHT22;35317;51.978;6.296;2024-03-02T10:24:44;10.90;99.90
49441;DHT22;35317;51.978;6.296;2024-03-02T10:29:46;11.00;99.90
49441;DHT22;35317;51.978;6.296;2024-03-02T10:34:47;11.10;99.90
49441;DHT22;35317;51.978;6.296;2024-03-02T10:39:48;11.30;99.90
49441;DHT22;35317;51.978;6.296;2024-03-02T10:44:49;11.40;99.90
49441;DHT22;35317;51.978;6.296;2024-03-02T10:49:51;11.60;99.90
49441;DHT22;35317;51.978;6.296;2024-03-02T10:54:53;11.60;99.90
49441;DHT22;35317;51.978;6.296;2024-03-02T10:59:56;11.70;99.90
49441;DHT22;35317;51.978;6.296;2024-03-02T11:05:05;11.80;99.90
49441;DHT22;35317;51.978;6.296;2024-03-02T11:10:10;11.90;99.90
49441;DHT22;35317;51.978;6.296;2024-03-02T11:15:11;12.00;99.90
49441;DHT22;35317;51.978;6.296;2024-03-02T11:20:18;12.20;99.90
49441;DHT22;35317;51.978;6.296;2024-03-02T11:25:26;12.30;99.90
49441;DHT22;35317;51.978;6.296;2024-03-02T11:35:36;12.50;99.80
49441;DHT22;35317;51.978;6.296;2024-03-02T11:40:52;12.60;99.70
49441;DHT22;35317;51.978;6.296;2024-03-02T11:45:57;12.70;99.30
49441;DHT22;35317;51.978;6.296;2024-03-02T11:51:00;12.80;99.10
49441;DHT22;35317;51.978;6.296;2024-03-02T11:56:01;12.90;98.50
49441;DHT22;35317;51.978;6.296;2024-03-02T12:01:02;13.00;98.20
49441;DHT22;35317;51.978;6.296;2024-03-02T12:06:03;13.20;97.70
49441;DHT22;35317;51.978;6.296;2024-03-02T12:11:05;13.40;96.80
49441;DHT22;35317;51.978;6.296;2024-03-02T12:16:07;13.60;96.30
49441;DHT22;35317;51.978;6.296;2024-03-02T12:21:07;13.80;96.30
49441;DHT22;35317;51.978;6.296;2024-03-02T12:26:09;14.20;95.80
49441;DHT22;35317;51.978;6.296;2024-03-02T12:31:10;14.60;94.50
49441;DHT22;35317;51.978;6.296;2024-03-02T12:36:10;15.10;93.20
49441;DHT22;35317;51.978;6.296;2024-03-02T12:41:17;15.50;92.00
49441;DHT22;35317;51.978;6.296;2024-03-02T12:46:18;15.80;91.30
49441;DHT22;35317;51.978;6.296;2024-03-02T12:51:18;16.10;89.70
49441;DHT22;35317;51.978;6.296;2024-03-02T12:56:19;16.20;88.20
49441;DHT22;35317;51.978;6.296;2024-03-02T13:01:20;16.00;86.20
49441;DHT22;35317;51.978;6.296;2024-03-02T13:06:21;15.90;85.70
49441;DHT22;35317;51.978;6.296;2024-03-02T13:11:23;15.90;84.90
49441;DHT22;35317;51.978;6.296;2024-03-02T13:16:25;15.80;82.80
49441;DHT22;35317;51.978;6.296;2024-03-02T13:21:26;15.70;82.80
49441;DHT22;35317;51.978;6.296;2024-03-02T13:26:27;15.80;82.70
49441;DHT22;35317;51.978;6.296;2024-03-02T13:31:28;16.00;82.30
49441;DHT22;35317;51.978;6.296;2024-03-02T13:36:28;16.10;81.90
49441;DHT22;35317;51.978;6.296;2024-03-02T13:41:29;16.20;81.40
49441;DHT22;35317;51.978;6.296;2024-03-02T13:46:30;16.50;81.10
49441;DHT22;35317;51.978;6.296;2024-03-02T13:51:31;16.60;80.20
49441;DHT22;35317;51.978;6.296;2024-03-02T13:56:34;16.70;80.20
49441;DHT22;35317;51.978;6.296;2024-03-02T14:01:35;16.80;79.40
49441;DHT22;35317;51.978;6.296;2024-03-02T14:06:36;16.80;78.50
49441;DHT22;35317;51.978;6.296;2024-03-02T14:11:36;16.70;78.30
49441;DHT22;35317;51.978;6.296;2024-03-02T14:16:37;16.50;78.20
49441;DHT22;35317;51.978;6.296;2024-03-02T14:21:39;16.30;78.10
49441;DHT22;35317;51.978;6.296;2024-03-02T14:26:40;16.00;78.30
49441;DHT22;35317;51.978;6.296;2024-03-02T14:31:41;15.70;78.40
49441;DHT22;35317;51.978;6.296;2024-03-02T14:36:42;15.50;79.20
49441;DHT22;35317;51.978;6.296;2024-03-02T14:41:45;15.40;79.50
49441;DHT22;35317;51.978;6.296;2024-03-02T14:46:48;15.30;80.30
49441;DHT22;35317;51.978;6.296;2024-03-02T14:51:49;15.10;80.90
49441;DHT22;35317;51.978;6.296;2024-03-02T14:56:50;15.10;81.40
49441;DHT22;35317;51.978;6.296;2024-03-02T15:01:50;15.10;81.70
49441;DHT22;35317;51.978;6.296;2024-03-02T15:06:51;15.00;82.10
49441;DHT22;35317;51.978;6.296;2024-03-02T15:11:52;15.00;82.70
49441;DHT22;35317;51.978;6.296;2024-03-02T15:16:53;14.90;83.10
49441;DHT22;35317;51.978;6.296;2024-03-02T15:21:54;15.10;83.50
49441;DHT22;35317;51.978;6.296;2024-03-02T15:26:54;15.30;83.40
49441;DHT22;35317;51.978;6.296;2024-03-02T15:31:55;15.40;83.20
49441;DHT22;35317;51.978;6.296;2024-03-02T15:36:56;15.40;83.80
49441;DHT22;35317;51.978;6.296;2024-03-02T15:41:57;15.30;83.10
49441;DHT22;35317;51.978;6.296;2024-03-02T15:46:58;15.20;83.20
49441;DHT22;35317;51.978;6.296;2024-03-02T15:51:59;15.10;83.30
49441;DHT22;35317;51.978;6.296;2024-03-02T15:57:01;15.00;83.40
49441;DHT22;35317;51.978;6.296;2024-03-02T16:02:02;15.00;83.50
49441;DHT22;35317;51.978;6.296;2024-03-02T16:07:04;14.90;83.60
49441;DHT22;35317;51.978;6.296;2024-03-02T16:12:05;14.80;83.90
49441;DHT22;35317;51.978;6.296;2024-03-02T16:17:06;14.70;84.10
49441;DHT22;35317;51.978;6.296;2024-03-02T16:22:07;14.60;84.50
49441;DHT22;35317;51.978;6.296;2024-03-02T16:27:11;14.50;85.00
49441;DHT22;35317;51.978;6.296;2024-03-02T16:32:12;14.40;85.50
49441;DHT22;35317;51.978;6.296;2024-03-02T16:37:13;14.30;85.90
49441;DHT22;35317;51.978;6.296;2024-03-02T16:42:13;14.20;86.20
49441;DHT22;35317;51.978;6.296;2024-03-02T16:47:18;14.10;86.70
49441;DHT22;35317;51.978;6.296;2024-03-02T16:52:19;13.90;87.20
49441;DHT22;35317;51.978;6.296;2024-03-02T16:57:20;13.80;87.60
49441;DHT22;35317;51.978;6.296;2024-03-02T17:02:21;13.60;88.00
49441;DHT22;35317;51.978;6.296;2024-03-02T17:07:21;13.40;88.50
49441;DHT22;35317;51.978;6.296;2024-03-02T17:12:25;13.30;89.00
49441;DHT22;35317;51.978;6.296;2024-03-02T17:17:26;13.10;89.60
49441;DHT22;35317;51.978;6.296;2024-03-02T17:22:27;13.00;90.00
49441;DHT22;35317;51.978;6.296;2024-03-02T17:27:28;12.90;90.20
49441;DHT22;35317;51.978;6.296;2024-03-02T17:32:31;12.80;90.50
49441;DHT22;35317;51.978;6.296;2024-03-02T17:37:32;12.70;91.00
49441;DHT22;35317;51.978;6.296;2024-03-02T17:42:34;12.60;91.00
49441;DHT22;35317;51.978;6.296;2024-03-02T17:47:35;12.60;91.20
49441;DHT22;35317;51.978;6.296;2024-03-02T17:52:36;12.50;91.40
49441;DHT22;35317;51.978;6.296;2024-03-02T17:57:37;12.50;91.50
49441;DHT22;35317;51.978;6.296;2024-03-02T18:02:38;12.40;91.70
49441;DHT22;35317;51.978;6.296;2024-03-02T18:07:38;12.40;91.90
49441;DHT22;35317;51.978;6.296;2024-03-02T18:12:39;12.30;92.10
49441;DHT22;35317;51.978;6.296;2024-03-02T18:17:40;12.30;92.50
49441;DHT22;35317;51.978;6.296;2024-03-02T18:22:41;12.20;92.40
49441;DHT22;35317;51.978;6.296;2024-03-02T18:27:42;12.20;92.60
49441;DHT22;35317;51.978;6.296;2024-03-02T18:32:42;12.10;92.80
49441;DHT22;35317;51.978;6.296;2024-03-02T18:37:44;12.10;92.90
49441;DHT22;35317;51.978;6.296;2024-03-02T18:42:45;12.10;93.10
49441;DHT22;35317;51.978;6.296;2024-03-02T18:47:46;12.10;93.20
49441;DHT22;35317;51.978;6.296;2024-03-02T18:52:47;12.20;93.30
49441;DHT22;35317;51.978;6.296;2024-03-02T18:57:48;12.30;93.30
49441;DHT22;35317;51.978;6.296;2024-03-02T19:02:49;12.40;93.30
49441;DHT22;35317;51.978;6.296;2024-03-02T19:07:50;12.50;93.20
49441;DHT22;35317;51.978;6.296;2024-03-02T19:12:50;12.60;93.10
49441;DHT22;35317;51.978;6.296;2024-03-02T19:17:51;12.70;93.00
49441;DHT22;35317;51.978;6.296;2024-03-02T19:22:52;12.80;92.90
49441;DHT22;35317;51.978;6.296;2024-03-02T19:27:53;12.80;92.70
49441;DHT22;35317;51.978;6.296;2024-03-02T19:32:54;12.90;92.60
49441;DHT22;35317;51.978;6.296;2024-03-02T19:37:55;12.90;92.50
49441;DHT22;35317;51.978;6.296;2024-03-02T19:42:56;12.90;92.30
49441;DHT22;35317;51.978;6.296;2024-03-02T19:47:57;13.00;92.30
49441;DHT22;35317;51.978;6.296;2024-03-02T19:52:58;12.90;92.20
49441;DHT22;35317;51.978;6.296;2024-03-02T19:57:59;12.80;92.20
49441;DHT22;35317;51.978;6.296;2024-03-02T20:02:59;12.60;92.20
49441;DHT22;35317;51.978;6.296;2024-03-02T20:08:00;12.40;92.30
49441;DHT22;35317;51.978;6.296;2024-03-02T20:13:01;12.30;92.40
49441;DHT22;35317;51.978;6.296;2024-03-02T20:18:05;12.20;92.50
49441;DHT22;35317;51.978;6.296;2024-03-02T20:23:06;12.00;92.50
49441;DHT22;35317;51.978;6.296;2024-03-02T20:28:06;12.00;92.50
49441;DHT22;35317;51.978;6.296;2024-03-02T20:33:07;12.00;92.50
49441;DHT22;35317;51.978;6.296;2024-03-02T20:38:08;11.80;92.50
49441;DHT22;35317;51.978;6.296;2024-03-02T20:43:09;11.80;92.60
49441;DHT22;35317;51.978;6.296;2024-03-02T20:48:11;11.60;92.70
49441;DHT22;35317;51.978;6.296;2024-03-02T20:53:12;11.50;92.80
49441;DHT22;35317;51.978;6.296;2024-03-02T20:58:13;11.40;92.90
49441;DHT22;35317;51.978;6.296;2024-03-02T21:03:14;11.40;93.00
49441;DHT22;35317;51.978;6.296;2024-03-02T21:08:15;11.40;93.20
49441;DHT22;35317;51.978;6.296;2024-03-02T21:13:16;11.30;93.30
49441;DHT22;35317;51.978;6.296;2024-03-02T21:18:16;11.30;93.40
49441;DHT22;35317;51.978;6.296;2024-03-02T21:23:17;11.30;93.50
49441;DHT22;35317;51.978;6.296;2024-03-02T21:28:18;11.30;93.60
49441;DHT22;35317;51.978;6.296;2024-03-02T21:33:19;11.20;93.70
49441;DHT22;35317;51.978;6.296;2024-03-02T21:38:20;11.20;93.80
49441;DHT22;35317;51.978;6.296;2024-03-02T21:43:21;11.20;94.00
49441;DHT22;35317;51.978;6.296;2024-03-02T21:48:22;11.20;94.00
49441;DHT22;35317;51.978;6.296;2024-03-02T21:53:23;11.10;94.10
49441;DHT22;35317;51.978;6.296;2024-03-02T21:58:24;11.00;94.20
49441;DHT22;35317;51.978;6.296;2024-03-02T22:03:24;11.00;94.40
49441;DHT22;35317;51.978;6.296;2024-03-02T22:08:25;11.00;94.50
49441;DHT22;35317;51.978;6.296;2024-03-02T22:13:27;10.90;94.60
49441;DHT22;35317;51.978;6.296;2024-03-02T22:18:28;10.90;94.70
49441;DHT22;35317;51.978;6.296;2024-03-02T22:23:29;10.80;94.80
49441;DHT22;35317;51.978;6.296;2024-03-02T22:28:30;10.70;95.00
49441;DHT22;35317;51.978;6.296;2024-03-02T22:33:31;10.80;95.10
49441;DHT22;35317;51.978;6.296;2024-03-02T22:38:32;10.90;95.20
49441;DHT22;35317;51.978;6.296;2024-03-02T22:43:33;10.90;95.30
49441;DHT22;35317;51.978;6.296;2024-03-02T22:48:34;11.00;95.40
49441;DHT22;35317;51.978;6.296;2024-03-02T22:53:34;11.10;95.40
49441;DHT22;35317;51.978;6.296;2024-03-02T22:58:38;11.20;95.50
49441;DHT22;35317;51.978;6.296;2024-03-02T23:03:39;11.20;95.50
49441;DHT22;35317;51.978;6.296;2024-03-02T23:08:40;11.20;95.50
49441;DHT22;35317;51.978;6.296;2024-03-02T23:13:41;11.20;95.70
49441;DHT22;35317;51.978;6.296;2024-03-02T23:18:42;11.20;95.50
49441;DHT22;35317;51.978;6.296;2024-03-02T23:23:43;11.20;95.60
49441;DHT22;35317;51.978;6.296;2024-03-02T23:28:44;11.10;95.70
49441;DHT22;35317;51.978;6.296;2024-03-02T23:33:47;11.10;95.80
49441;DHT22;35317;51.978;6.296;2024-03-02T23:38:49;11.10;95.90
49441;DHT22;35317;51.978;6.296;2024-03-02T23:43:50;11.10;96.00
49441;DHT22;35317;51.978;6.296;2024-03-02T23:48:51;11.00;96.10
49441;DHT22;35317;51.978;6.296;2024-03-02T23:53:51;11.00;96.20
49441;DHT22;35317;51.978;6.296;2024-03-02T23:58:52;10.90;96.30
